createdAt,value
2019-03-08T00:00:20.670Z,98796.41
2019-03-08T00:02:53.099Z,98802.23
2019-03-08T00:05:24.116Z,98804.91
2019-03-08T00:07:54.906Z,98793.80
2019-03-08T00:10:25.698Z,98796.11
2019-03-08T00:12:56.574Z,98800.59
2019-03-08T00:15:27.413Z,98806.47
2019-03-08T00:17:58.294Z,98816.07
2019-03-08T00:20:29.370Z,98830.46
2019-03-08T00:23:00.201Z,98825.25
2019-03-08T00:25:30.982Z,98815.12
2019-03-08T00:28:01.857Z,98833.08
2019-03-08T00:30:32.979Z,98839.89
2019-03-08T00:33:03.778Z,98847.44
2019-03-08T00:35:34.536Z,98840.12
2019-03-08T00:38:05.414Z,98851.08
2019-03-08T00:40:36.306Z,98853.16
2019-03-08T00:43:07.191Z,98856.45
2019-03-08T00:45:37.957Z,98859.27
2019-03-08T00:48:08.698Z,98853.06
2019-03-08T00:50:39.493Z,98853.13
2019-03-08T00:53:10.129Z,98862.74
2019-03-08T00:55:41.179Z,98857.52
2019-03-08T00:58:12.321Z,98868.80
2019-03-08T01:00:43.249Z,98864.58
2019-03-08T01:03:14.128Z,98866.75
2019-03-08T01:05:44.838Z,98864.84
2019-03-08T01:08:16.051Z,98861.89
2019-03-08T01:10:46.733Z,98862.44
2019-03-08T01:13:17.521Z,98856.52
2019-03-08T01:15:48.374Z,98846.73
2019-03-08T01:18:19.237Z,98860.48
2019-03-08T01:20:50.293Z,98857.47
2019-03-08T01:23:21.157Z,98851.89
2019-03-08T01:25:52.053Z,98858.58
2019-03-08T01:28:22.926Z,98853.45
2019-03-08T01:30:53.597Z,98849.63
2019-03-08T01:33:24.370Z,98855.06
2019-03-08T01:35:55.161Z,98852.88
2019-03-08T01:38:25.936Z,98860.04
2019-03-08T01:40:56.782Z,98861.89
2019-03-08T01:43:27.708Z,98860.16
2019-03-08T01:45:58.498Z,98856.74
2019-03-08T01:48:29.278Z,98853.94
2019-03-08T01:51:00.071Z,98863.72
2019-03-08T01:53:30.638Z,98862.16
2019-03-08T01:56:01.606Z,98874.97
2019-03-08T01:58:32.381Z,98868.07
2019-03-08T02:01:03.159Z,98868.80
2019-03-08T02:03:34.008Z,98874.36
2019-03-08T02:06:04.928Z,98870.82
2019-03-08T02:08:36.799Z,98869.60
2019-03-08T02:11:07.627Z,98874.97
2019-03-08T02:13:38.513Z,98880.61
2019-03-08T02:16:10.322Z,98884.34
2019-03-08T02:18:41.162Z,98891.05
2019-03-08T02:21:12.275Z,98890.39
2019-03-08T02:23:43.134Z,98886.81
2019-03-08T02:26:14.013Z,98895.50
2019-03-08T02:28:44.705Z,98892.57
2019-03-08T02:31:15.541Z,98901.97
2019-03-08T02:33:46.446Z,98897.33
2019-03-08T02:36:17.276Z,98887.73
2019-03-08T02:38:48.060Z,98884.98
2019-03-08T02:41:19.343Z,98880.12
2019-03-08T02:43:50.034Z,98881.36
2019-03-08T02:46:20.928Z,98881.29
2019-03-08T02:48:51.766Z,98880.17
2019-03-08T02:51:22.484Z,98883.97
2019-03-08T02:53:53.133Z,98893.92
2019-03-08T02:56:23.941Z,98897.20
2019-03-08T02:58:54.702Z,98895.02
2019-03-08T03:01:25.485Z,98903.17
2019-03-08T03:03:56.274Z,98903.61
2019-03-08T03:06:27.355Z,98906.48
2019-03-08T03:08:58.154Z,98910.50
2019-03-08T03:11:28.958Z,98916.31
2019-03-08T03:13:59.731Z,98920.52
2019-03-08T03:16:30.513Z,98912.05
2019-03-08T03:19:01.302Z,98913.34
2019-03-08T03:21:33.100Z,98915.41
2019-03-08T03:24:04.198Z,98907.76
2019-03-08T03:26:35.220Z,98910.70
2019-03-08T03:29:06.006Z,98920.98
2019-03-08T03:31:36.786Z,98915.62
2019-03-08T03:34:07.473Z,98914.90
2019-03-08T03:36:38.434Z,98919.47
2019-03-08T03:39:09.109Z,98921.42
2019-03-08T03:41:40.184Z,98921.72
2019-03-08T03:44:11.133Z,98919.44
2019-03-08T03:46:43.082Z,98931.97
2019-03-08T03:49:14.129Z,98941.25
2019-03-08T03:51:45.712Z,98943.20
2019-03-08T03:54:17.501Z,98945.08
2019-03-08T03:56:48.291Z,98955.91
2019-03-08T03:59:19.186Z,98954.57
2019-03-08T04:01:51.106Z,98965.52
2019-03-08T04:04:21.905Z,98958.63
2019-03-08T04:06:52.964Z,98962.13
2019-03-08T04:09:23.752Z,98967.17
2019-03-08T04:11:54.633Z,98965.61
2019-03-08T04:14:25.578Z,98966.56
2019-03-08T04:16:56.346Z,98974.81
2019-03-08T04:19:27.030Z,98977.88
2019-03-08T04:21:58.263Z,98979.33
2019-03-08T04:24:29.084Z,98977.88
2019-03-08T04:27:00.461Z,98979.73
2019-03-08T04:29:31.299Z,98981.47
2019-03-08T04:32:02.069Z,98990.59
2019-03-08T04:34:32.836Z,98992.44
2019-03-08T04:37:03.900Z,98990.28
2019-03-08T04:39:35.740Z,98999.03
2019-03-08T04:42:06.630Z,99001.09
2019-03-08T04:44:37.405Z,99003.48
2019-03-08T04:47:08.190Z,99006.06
2019-03-08T04:49:38.908Z,99013.99
2019-03-08T04:52:09.948Z,99016.27
2019-03-08T04:54:40.734Z,99021.83
2019-03-08T04:57:11.541Z,99019.25
2019-03-08T04:59:42.561Z,99027.81
2019-03-08T05:02:13.269Z,99025.44
2019-03-08T05:04:44.465Z,99032.36
2019-03-08T05:07:15.169Z,99032.56
2019-03-08T05:09:46.027Z,99025.04
2019-03-08T05:12:16.905Z,99027.91
2019-03-08T05:14:47.683Z,99027.81
2019-03-08T05:17:18.656Z,99032.56
2019-03-08T05:19:49.352Z,99037.11
2019-03-08T05:22:20.133Z,99041.75
2019-03-08T05:24:50.819Z,99031.44
2019-03-08T05:27:21.618Z,99036.56
2019-03-08T05:29:52.593Z,99036.47
2019-03-08T05:32:23.561Z,99041.75
2019-03-08T05:34:54.373Z,99046.36
2019-03-08T05:37:25.271Z,99052.05
2019-03-08T05:39:56.147Z,99049.06
2019-03-08T05:42:27.189Z,99055.96
2019-03-08T05:44:57.918Z,99055.25
2019-03-08T05:47:28.706Z,99054.20
2019-03-08T05:49:59.458Z,99062.58
2019-03-08T05:52:30.225Z,99065.05
2019-03-08T05:55:01.425Z,99072.36
2019-03-08T05:57:32.308Z,99073.30
2019-03-08T06:00:03.213Z,99075.35
2019-03-08T06:02:34.182Z,99079.69
2019-03-08T06:05:05.529Z,99077.63
2019-03-08T06:07:36.305Z,99081.86
2019-03-08T06:10:27.862Z,99089.98
2019-03-08T06:12:59.237Z,99093.81
2019-03-08T06:15:30.043Z,99095.67
2019-03-08T06:18:01.266Z,99106.17
2019-03-08T06:20:32.140Z,99106.93
2019-03-08T06:23:04.517Z,99104.03
2019-03-08T06:25:35.582Z,99105.47
2019-03-08T06:28:06.463Z,99112.30
2019-03-08T06:30:37.445Z,99111.97
2019-03-08T06:33:08.227Z,99112.47
2019-03-08T06:35:38.683Z,99117.53
2019-03-08T06:38:09.493Z,99110.11
2019-03-08T06:40:40.258Z,99123.00
2019-03-08T06:43:11.234Z,99121.25
2019-03-08T06:45:42.126Z,99129.72
2019-03-08T06:48:12.918Z,99121.16
2019-03-08T06:50:43.732Z,99125.68
2019-03-08T06:53:14.715Z,99126.20
2019-03-08T06:55:45.498Z,99127.05
2019-03-08T06:58:22.712Z,99127.57
2019-03-08T07:01:12.391Z,99130.98
2019-03-08T07:03:43.432Z,99138.20
2019-03-08T07:06:14.310Z,99139.95
2019-03-08T07:08:45.106Z,99152.22
2019-03-08T07:11:15.888Z,99150.05
2019-03-08T07:13:46.653Z,99167.82
2019-03-08T07:16:17.554Z,99170.08
2019-03-08T07:18:48.479Z,99182.48
2019-03-08T07:21:29.575Z,99187.23
2019-03-08T07:24:12.434Z,99197.55
2019-03-08T07:27:00.877Z,99202.63
2019-03-08T07:29:59.944Z,99205.60
2019-03-08T07:32:54.774Z,99214.27
2019-03-08T07:35:50.811Z,99219.12
2019-03-08T07:38:55.934Z,99223.16
2019-03-08T07:42:00.718Z,99227.59
2019-03-08T07:44:56.026Z,99242.27
2019-03-08T07:47:48.838Z,99243.19
2019-03-08T07:50:53.934Z,99262.59
2019-03-08T07:53:31.059Z,99265.29
2019-03-08T07:56:11.217Z,99280.78
2019-03-08T07:59:03.627Z,99281.91
2019-03-08T08:01:41.794Z,99287.70
2019-03-08T08:04:40.794Z,99287.39
2019-03-08T08:07:21.358Z,99288.51
2019-03-08T08:10:05.823Z,99291.31
2019-03-08T08:13:04.159Z,99307.53
2019-03-08T08:15:52.717Z,99313.52
2019-03-08T08:18:45.838Z,99319.92
2019-03-08T08:21:27.429Z,99321.47
2019-03-08T08:24:26.258Z,99331.51
2019-03-08T08:27:15.885Z,99330.77
2019-03-08T08:30:20.970Z,99336.87
2019-03-08T08:33:13.346Z,99344.41
2019-03-08T08:35:59.836Z,99353.39
2019-03-08T08:38:52.602Z,99356.28
2019-03-08T08:41:32.963Z,99366.62
2019-03-08T08:44:25.763Z,99368.78
2019-03-08T08:47:21.377Z,99373.44
2019-03-08T08:50:03.090Z,99379.52
2019-03-08T08:52:49.825Z,99386.77
2019-03-08T08:55:38.330Z,99386.96
2019-03-08T08:58:28.374Z,99386.50
2019-03-08T09:01:16.535Z,99383.48
2019-03-08T09:04:06.403Z,99393.60
2019-03-08T09:06:56.046Z,99388.95
2019-03-08T09:09:56.589Z,99389.86
2019-03-08T09:12:41.390Z,99394.11
2019-03-08T09:15:25.451Z,99402.80
2019-03-08T09:18:06.210Z,99408.29
2019-03-08T09:20:55.669Z,99405.86
2019-03-08T09:23:45.405Z,99412.84
2019-03-08T09:26:47.558Z,99413.13
2019-03-08T09:29:41.509Z,99417.70
2019-03-08T09:32:24.467Z,99418.51
2019-03-08T09:35:05.375Z,99419.20
2019-03-08T09:37:56.961Z,99427.16
2019-03-08T09:41:05.095Z,99432.71
2019-03-08T09:43:53.725Z,99433.67
2019-03-08T09:46:42.055Z,99442.27
2019-03-08T09:49:20.997Z,99439.42
2019-03-08T09:52:13.587Z,99437.84
2019-03-08T09:55:06.372Z,99445.58
2019-03-08T09:57:56.923Z,99440.02
2019-03-08T10:00:51.503Z,99444.06
2019-03-08T10:03:46.423Z,99440.48
2019-03-08T10:06:45.790Z,99442.57
2019-03-08T10:09:30.862Z,99450.00
2019-03-08T10:12:20.079Z,99450.69
2019-03-08T10:15:08.420Z,99451.41
2019-03-08T10:18:00.921Z,99439.06
2019-03-08T10:20:46.447Z,99442.69
2019-03-08T10:23:38.808Z,99449.20
2019-03-08T10:26:37.793Z,99449.78
2019-03-08T10:29:26.040Z,99458.41
2019-03-08T10:32:36.824Z,99465.47
2019-03-08T10:35:23.925Z,99464.72
2019-03-08T10:38:05.233Z,99471.42
2019-03-08T10:41:12.906Z,99477.57
2019-03-08T10:44:15.522Z,99472.55
2019-03-08T10:47:03.759Z,99480.60
2019-03-08T10:49:55.819Z,99479.39
2019-03-08T10:52:53.770Z,99483.91
2019-03-08T10:55:51.995Z,99479.19
2019-03-08T10:58:41.559Z,99477.25
2019-03-08T11:01:34.130Z,99476.98
2019-03-08T11:04:42.095Z,99482.56
2019-03-08T11:07:31.155Z,99486.03
2019-03-08T11:10:36.011Z,99494.67
2019-03-08T11:13:28.510Z,99490.17
2019-03-08T11:16:17.031Z,99492.94
2019-03-08T11:19:18.743Z,99499.01
2019-03-08T11:22:07.405Z,99504.62
2019-03-08T11:24:55.983Z,99502.16
2019-03-08T11:27:48.511Z,99504.41
2019-03-08T11:30:41.037Z,99496.41
2019-03-08T11:33:46.047Z,99498.63
2019-03-08T11:36:27.412Z,99495.75
2019-03-08T11:39:21.236Z,99496.37
2019-03-08T11:42:00.903Z,99489.63
2019-03-08T11:44:57.819Z,99488.16
2019-03-08T11:47:42.822Z,99487.03
2019-03-08T11:50:26.635Z,99486.09
2019-03-08T11:53:08.677Z,99483.72
2019-03-08T11:55:44.377Z,99484.85
2019-03-08T11:58:34.227Z,99486.71
2019-03-08T12:01:33.887Z,99480.41
2019-03-08T12:04:33.021Z,99474.37
2019-03-08T12:07:25.424Z,99476.65
2019-03-08T12:10:24.027Z,99481.61
2019-03-08T12:13:01.908Z,99480.43
2019-03-08T12:16:03.877Z,99484.90
2019-03-08T12:18:56.341Z,99492.58
2019-03-08T12:21:41.285Z,99483.30
2019-03-08T12:24:42.871Z,99486.45
2019-03-08T12:27:23.099Z,99483.20
2019-03-08T12:30:04.414Z,99478.19
2019-03-08T12:32:59.032Z,99483.30
2019-03-08T12:35:52.792Z,99482.84
2019-03-08T12:38:42.554Z,99479.38
2019-03-08T12:41:35.570Z,99476.68
2019-03-08T12:44:23.951Z,99481.88
2019-03-08T12:47:22.819Z,99474.24
2019-03-08T12:50:00.631Z,99475.20
2019-03-08T12:52:48.315Z,99471.86
2019-03-08T12:55:42.132Z,99470.74
2019-03-08T12:58:44.575Z,99471.02
2019-03-08T13:01:25.071Z,99468.16
2019-03-08T13:04:24.478Z,99470.73
2019-03-08T13:07:12.305Z,99468.99
2019-03-08T13:09:48.407Z,99469.28
2019-03-08T13:12:19.478Z,99472.91
2019-03-08T13:14:50.430Z,99470.46
2019-03-08T13:17:21.939Z,99463.89
2019-03-08T13:19:52.743Z,99464.89
2019-03-08T13:22:23.539Z,99453.95
2019-03-08T13:24:54.352Z,99458.61
2019-03-08T13:27:25.040Z,99462.30
2019-03-08T13:29:56.163Z,99462.19
2019-03-08T13:32:27.017Z,99455.50
2019-03-08T13:34:57.688Z,99464.30
2019-03-08T13:37:28.486Z,99466.41
2019-03-08T13:39:59.167Z,99468.35
2019-03-08T13:42:30.127Z,99463.78
2019-03-08T13:45:00.826Z,99470.67
2019-03-08T13:47:31.587Z,99470.30
2019-03-08T13:50:03.348Z,99462.91
2019-03-08T13:52:34.252Z,99466.39
2019-03-08T13:55:05.539Z,99466.98
2019-03-08T13:57:36.263Z,99471.86
2019-03-08T14:00:08.875Z,99470.38
2019-03-08T14:02:39.612Z,99466.94
2019-03-08T14:05:10.937Z,99467.58
2019-03-08T14:07:41.909Z,99474.64
2019-03-08T14:10:14.552Z,99483.91
2019-03-08T14:12:45.471Z,99480.09
2019-03-08T14:15:16.421Z,99475.11
2019-03-08T14:17:47.308Z,99476.58
2019-03-08T14:20:19.239Z,99480.23
2019-03-08T14:22:50.119Z,99477.13
2019-03-08T14:25:21.000Z,99471.83
2019-03-08T14:27:51.815Z,99472.54
2019-03-08T14:30:24.296Z,99474.48
2019-03-08T14:32:58.018Z,99477.38
2019-03-08T14:35:29.652Z,99476.02
2019-03-08T14:38:00.121Z,99489.75
2019-03-08T14:40:48.844Z,99479.06
2019-03-08T14:43:28.224Z,99487.67
2019-03-08T14:46:03.857Z,99485.37
2019-03-08T14:48:35.679Z,99483.42
2019-03-08T14:51:09.432Z,99482.09
2019-03-08T14:53:39.167Z,99483.54
2019-03-08T14:56:10.038Z,99472.77
2019-03-08T14:58:41.074Z,99479.37
2019-03-08T15:01:12.090Z,99481.89
2019-03-08T15:03:43.849Z,99477.69
2019-03-08T15:06:15.299Z,99471.69
2019-03-08T15:08:46.070Z,99479.30
2019-03-08T15:11:16.741Z,99478.77
2019-03-08T15:13:47.542Z,99486.28
2019-03-08T15:16:18.215Z,99485.76
2019-03-08T15:18:49.045Z,99483.27
2019-03-08T15:21:19.875Z,99482.95
2019-03-08T15:23:54.129Z,99477.91
2019-03-08T15:26:23.287Z,99475.48
2019-03-08T15:28:54.039Z,99464.10
2019-03-08T15:31:24.832Z,99467.23
2019-03-08T15:33:55.667Z,99463.28
2019-03-08T15:36:26.398Z,99459.50
2019-03-08T15:38:58.765Z,99460.45
2019-03-08T15:41:29.644Z,99459.48
2019-03-08T15:44:00.594Z,99456.98
2019-03-08T15:46:31.516Z,99457.98
2019-03-08T15:49:03.427Z,99459.89
2019-03-08T15:51:34.467Z,99462.38
2019-03-08T15:54:05.579Z,99464.14
2019-03-08T15:56:36.563Z,99460.76
2019-03-08T15:59:07.798Z,99467.05
2019-03-08T16:01:38.643Z,99456.30
2019-03-08T16:04:12.086Z,99459.59
2019-03-08T16:06:43.847Z,99455.10
2019-03-08T16:09:16.905Z,99456.38
2019-03-08T16:11:47.660Z,99457.05
2019-03-08T16:14:18.431Z,99460.55
2019-03-08T16:16:49.227Z,99460.94
2019-03-08T16:19:20.879Z,99460.49
2019-03-08T16:21:52.441Z,99459.76
2019-03-08T16:24:23.115Z,99463.59
2019-03-08T16:26:54.081Z,99465.92
2019-03-08T16:29:25.191Z,99463.55
2019-03-08T16:32:18.658Z,99464.53
2019-03-08T16:34:49.329Z,99462.40
2019-03-08T16:37:30.921Z,99461.14
2019-03-08T16:40:20.421Z,99457.17
2019-03-08T16:43:25.384Z,99459.78
2019-03-08T16:46:23.875Z,99458.43
2019-03-08T16:49:14.770Z,99466.06
2019-03-08T16:52:13.520Z,99472.05
2019-03-08T16:55:01.792Z,99475.98
2019-03-08T16:57:50.587Z,99474.94
2019-03-08T17:00:41.139Z,99477.38
2019-03-08T17:03:22.260Z,99489.42
2019-03-08T17:06:13.891Z,99485.09
2019-03-08T17:09:06.578Z,99485.83
2019-03-08T17:11:55.235Z,99493.98
2019-03-08T17:14:43.695Z,99497.03
2019-03-08T17:17:32.131Z,99502.62
2019-03-08T17:20:16.800Z,99506.69
2019-03-08T17:23:01.209Z,99507.42
2019-03-08T17:25:37.215Z,99509.16
2019-03-08T17:28:19.971Z,99505.92
2019-03-08T17:30:58.390Z,99516.92
2019-03-08T17:33:51.687Z,99516.74
2019-03-08T17:36:32.579Z,99511.30
2019-03-08T17:39:11.256Z,99520.88
2019-03-08T17:42:04.027Z,99521.43
2019-03-08T17:44:52.595Z,99527.69
2019-03-08T17:47:36.136Z,99525.53
2019-03-08T17:50:26.539Z,99529.35
2019-03-08T17:53:25.348Z,99531.02
2019-03-08T17:56:27.408Z,99540.83
2019-03-08T17:59:15.532Z,99541.45
2019-03-08T18:02:03.958Z,99540.02
2019-03-08T18:04:52.514Z,99548.09
2019-03-08T18:07:35.495Z,99546.05
2019-03-08T18:10:31.301Z,99544.78
2019-03-08T18:13:20.966Z,99547.27
2019-03-08T18:16:28.960Z,99551.50
2019-03-08T18:19:27.752Z,99556.16
2019-03-08T18:22:20.536Z,99562.81
2019-03-08T18:25:10.194Z,99564.16
2019-03-08T18:27:59.451Z,99564.88
2019-03-08T18:30:44.823Z,99572.23
2019-03-08T18:33:40.266Z,99575.43
2019-03-08T18:36:26.129Z,99581.53
2019-03-08T18:39:15.704Z,99575.52
2019-03-08T18:41:55.857Z,99576.89
2019-03-08T18:44:48.858Z,99578.75
2019-03-08T18:47:38.606Z,99584.95
2019-03-08T18:50:32.462Z,99581.02
2019-03-08T18:53:34.115Z,99590.73
2019-03-08T18:56:22.474Z,99581.11
2019-03-08T18:59:32.970Z,99581.44
2019-03-08T19:02:24.770Z,99579.47
2019-03-08T19:05:23.514Z,99585.90
2019-03-08T19:08:11.617Z,99578.55
2019-03-08T19:11:10.750Z,99581.55
2019-03-08T19:14:00.399Z,99584.55
2019-03-08T19:17:08.695Z,99575.43
2019-03-08T19:19:57.152Z,99585.98
2019-03-08T19:22:36.614Z,99599.23
2019-03-08T19:25:35.883Z,99603.16
2019-03-08T19:28:30.685Z,99608.15
2019-03-08T19:31:23.168Z,99607.09
2019-03-08T19:34:10.342Z,99604.73
2019-03-08T19:36:59.950Z,99609.59
2019-03-08T19:39:48.515Z,99609.98
2019-03-08T19:42:27.908Z,99613.83
2019-03-08T19:45:16.403Z,99608.77
2019-03-08T19:48:04.794Z,99613.30
2019-03-08T19:51:12.510Z,99621.58
2019-03-08T19:54:04.396Z,99626.75
2019-03-08T19:57:03.126Z,99628.22
2019-03-08T19:59:52.976Z,99634.41
2019-03-08T20:02:46.578Z,99630.91
2019-03-08T20:05:34.982Z,99630.38
2019-03-08T20:08:30.339Z,99638.36
2019-03-08T20:11:32.190Z,99643.50
2019-03-08T20:14:20.446Z,99646.52
2019-03-08T20:17:12.981Z,99645.38
2019-03-08T20:19:51.304Z,99651.39
2019-03-08T20:22:35.177Z,99650.55
2019-03-08T20:25:13.610Z,99649.54
2019-03-08T20:27:50.572Z,99651.30
2019-03-08T20:30:46.561Z,99645.20
2019-03-08T20:33:28.182Z,99637.42
2019-03-08T20:36:07.800Z,99642.17
2019-03-08T20:39:03.932Z,99644.48
2019-03-08T20:41:55.242Z,99640.23
2019-03-08T20:44:31.616Z,99642.50
2019-03-08T20:47:11.736Z,99646.23
2019-03-08T20:49:42.562Z,99638.47
2019-03-08T20:52:13.383Z,99631.20
2019-03-08T20:54:44.153Z,99629.97
2019-03-08T20:57:16.991Z,99629.67
2019-03-08T20:59:47.918Z,99635.77
2019-03-08T21:02:18.616Z,99627.08
2019-03-08T21:04:49.815Z,99627.37
2019-03-08T21:07:20.671Z,99634.02
2019-03-08T21:09:51.546Z,99627.08
2019-03-08T21:12:22.242Z,99625.31
2019-03-08T21:14:54.246Z,99638.56
2019-03-08T21:17:25.034Z,99636.80
2019-03-08T21:19:55.808Z,99638.47
2019-03-08T21:22:26.441Z,99640.83
2019-03-08T21:24:57.299Z,99641.78
2019-03-08T21:27:28.455Z,99650.16
2019-03-08T21:29:59.650Z,99651.92
2019-03-08T21:32:30.293Z,99649.44
2019-03-08T21:35:01.198Z,99650.27
2019-03-08T21:37:32.468Z,99637.33
2019-03-08T21:40:03.717Z,99631.53
2019-03-08T21:42:36.875Z,99629.97
2019-03-08T21:45:09.078Z,99619.92
2019-03-08T21:47:39.918Z,99630.69
2019-03-08T21:50:13.325Z,99632.37
2019-03-08T21:52:44.246Z,99630.69
2019-03-08T21:55:15.503Z,99623.97
2019-03-08T21:57:46.334Z,99622.00
2019-03-08T22:00:18.744Z,99621.61
2019-03-08T22:02:49.610Z,99623.34
2019-03-08T22:05:24.122Z,99622.53
2019-03-08T22:07:55.103Z,99619.42
2019-03-08T22:10:47.865Z,99622.09
2019-03-08T22:13:18.666Z,99618.91
2019-03-08T22:15:49.911Z,99622.09
2019-03-08T22:18:20.670Z,99618.17
2019-03-08T22:20:51.550Z,99615.89
2019-03-08T22:23:22.342Z,99618.38
2019-03-08T22:25:53.105Z,99616.94
2019-03-08T22:28:24.090Z,99613.63
2019-03-08T22:30:54.855Z,99618.70
2019-03-08T22:33:25.549Z,99620.67
2019-03-08T22:35:56.621Z,99614.25
2019-03-08T22:38:27.253Z,99621.90
2019-03-08T22:40:58.210Z,99619.72
2019-03-08T22:43:29.130Z,99622.00
2019-03-08T22:45:59.810Z,99612.36
2019-03-08T22:48:30.746Z,99616.22
2019-03-08T22:51:01.619Z,99618.80
2019-03-08T22:53:32.276Z,99620.86
2019-03-08T22:56:03.279Z,99617.03
2019-03-08T22:58:33.942Z,99611.95
2019-03-08T23:01:09.962Z,99614.02
2019-03-08T23:03:41.147Z,99617.23
2019-03-08T23:06:11.845Z,99611.34
2019-03-08T23:08:42.710Z,99611.03
2019-03-08T23:11:13.530Z,99605.53
2019-03-08T23:13:44.617Z,99597.88
2019-03-08T23:16:15.430Z,99591.37
2019-03-08T23:18:46.379Z,99589.59
2019-03-08T23:21:16.966Z,99587.22
2019-03-08T23:23:47.645Z,99589.28
2019-03-08T23:26:18.534Z,99589.10
2019-03-08T23:28:52.880Z,99586.70
2019-03-08T23:31:36.605Z,99589.82
2019-03-08T23:34:07.253Z,99583.61
2019-03-08T23:36:37.857Z,99582.05
2019-03-08T23:39:09.623Z,99579.25
2019-03-08T23:41:41.878Z,99571.60
2019-03-08T23:44:12.954Z,99574.92
2019-03-08T23:46:43.661Z,99573.96
2019-03-08T23:49:14.443Z,99573.24
2019-03-08T23:51:45.428Z,99573.58
2019-03-08T23:54:16.487Z,99567.14
2019-03-08T23:56:47.164Z,99565.50
2019-03-08T23:59:17.877Z,99558.86
